首页
METAR-TAF:

METAR-TAF

机场 :

卡昂, 法国

纬度: 49-11N, 经度: 000-27W, 海拔: 78米

当前天气观测

该预报发布于15分钟前的14:30 UTC
风速10节,风向,在西北东北之间变化
温度 25°C
湿度 57%
气压 1023 hPa
能见度10公里或以上
1500米以下无云,无积雨云

METAR: LFRK 221430Z AUTO 01010KT 320V040 CAVOK 25/16 Q1023 NOSIG

时间: 16:45 (14:45 UTC)

预报

该预报发布于45分钟前的14:00 UTC
预报有效从22日的 15点(UTC)到 22日的 24点(UTC)
风速10节,风向北转东北
能见度10公里或以上
1500米以下无云,无积雨云
成为
从 22日的 18点(UTC)到 22日的 21点(UTC)
风速5节,风向多变

TAF: LFRK 221400Z 2215/2224 02010KT CAVOK BECMG 2218/2221 VRB05KT

超过4000个机场的气象观测和天气预报(METAR&TAF报告)。

可查询的气象台以黄色和红色小点在地图上表示。

将鼠标移到小点上方,可查看气象台名称。

然后点击查看天气观测和预报。

如需切换地图:点击带黑十字的绿色按钮放大地图;点击带横线的绿色按钮缩小地图;或者点击绿色箭头查看邻近地区的地图。


METAR-TAF: